sensor_id;sensor_type;location;lat;lon;timestamp;P1;durP1;ratioP1;P2;durP2;ratioP2
61673;SDS011;47573;43.832;5.974;2023-05-07T00:04:03;555.37;;;473.20;;
61673;SDS011;47573;43.832;5.974;2023-05-07T00:10:46;550.15;;;461.17;;
61673;SDS011;47573;43.832;5.974;2023-05-07T00:17:26;549.87;;;466.27;;
61673;SDS011;47573;43.832;5.974;2023-05-07T00:24:07;530.00;;;442.30;;
61673;SDS011;47573;43.832;5.974;2023-05-07T00:30:48;531.53;;;447.00;;
61673;SDS011;47573;43.832;5.974;2023-05-07T00:37:29;531.73;;;446.27;;
61673;SDS011;47573;43.832;5.974;2023-05-07T00:44:09;522.97;;;436.13;;
61673;SDS011;47573;43.832;5.974;2023-05-07T00:50:51;516.10;;;423.20;;
61673;SDS011;47573;43.832;5.974;2023-05-07T00:57:32;516.57;;;419.37;;
61673;SDS011;47573;43.832;5.974;2023-05-07T01:04:16;498.63;;;405.55;;
61673;SDS011;47573;43.832;5.974;2023-05-07T01:10:57;483.93;;;376.80;;
61673;SDS011;47573;43.832;5.974;2023-05-07T01:17:40;489.83;;;388.58;;
61673;SDS011;47573;43.832;5.974;2023-05-07T01:24:23;479.50;;;381.77;;
61673;SDS011;47573;43.832;5.974;2023-05-07T01:31:04;480.52;;;380.02;;
61673;SDS011;47573;43.832;5.974;2023-05-07T01:37:45;472.85;;;374.27;;
61673;SDS011;47573;43.832;5.974;2023-05-07T01:44:28;469.17;;;368.17;;
61673;SDS011;47573;43.832;5.974;2023-05-07T01:51:09;462.27;;;359.23;;
61673;SDS011;47573;43.832;5.974;2023-05-07T01:57:50;450.80;;;350.57;;
61673;SDS011;47573;43.832;5.974;2023-05-07T02:04:31;449.03;;;351.00;;
61673;SDS011;47573;43.832;5.974;2023-05-07T02:11:12;441.67;;;347.57;;
61673;SDS011;47573;43.832;5.974;2023-05-07T02:17:59;442.67;;;346.73;;
61673;SDS011;47573;43.832;5.974;2023-05-07T02:24:41;443.70;;;350.80;;
61673;SDS011;47573;43.832;5.974;2023-05-07T02:31:22;442.63;;;349.65;;
61673;SDS011;47573;43.832;5.974;2023-05-07T02:38:02;444.57;;;351.27;;
61673;SDS011;47573;43.832;5.974;2023-05-07T02:44:44;445.63;;;346.47;;
61673;SDS011;47573;43.832;5.974;2023-05-07T02:51:25;432.03;;;339.13;;
61673;SDS011;47573;43.832;5.974;2023-05-07T02:58:06;418.50;;;328.63;;
61673;SDS011;47573;43.832;5.974;2023-05-07T03:04:47;411.77;;;321.13;;
61673;SDS011;47573;43.832;5.974;2023-05-07T03:11:28;403.27;;;319.07;;
61673;SDS011;47573;43.832;5.974;2023-05-07T03:18:08;410.13;;;319.92;;
61673;SDS011;47573;43.832;5.974;2023-05-07T03:24:50;406.80;;;319.07;;
61673;SDS011;47573;43.832;5.974;2023-05-07T03:31:31;395.60;;;310.77;;
61673;SDS011;47573;43.832;5.974;2023-05-07T03:38:11;394.58;;;309.58;;
61673;SDS011;47573;43.832;5.974;2023-05-07T03:44:53;381.80;;;303.33;;
61673;SDS011;47573;43.832;5.974;2023-05-07T03:51:33;372.13;;;294.45;;
61673;SDS011;47573;43.832;5.974;2023-05-07T03:58:14;363.40;;;287.07;;
61673;SDS011;47573;43.832;5.974;2023-05-07T04:04:56;360.37;;;281.00;;
61673;SDS011;47573;43.832;5.974;2023-05-07T04:11:36;362.63;;;282.13;;
61673;SDS011;47573;43.832;5.974;2023-05-07T04:18:17;355.13;;;280.27;;
61673;SDS011;47573;43.832;5.974;2023-05-07T04:24:59;357.08;;;277.60;;
61673;SDS011;47573;43.832;5.974;2023-05-07T04:31:39;340.77;;;267.48;;
61673;SDS011;47573;43.832;5.974;2023-05-07T04:38:19;334.97;;;260.60;;
61673;SDS011;47573;43.832;5.974;2023-05-07T04:45:01;321.57;;;254.23;;
61673;SDS011;47573;43.832;5.974;2023-05-07T04:51:42;315.40;;;247.48;;
61673;SDS011;47573;43.832;5.974;2023-05-07T04:58:23;307.38;;;241.80;;
61673;SDS011;47573;43.832;5.974;2023-05-07T05:05:05;299.48;;;234.02;;
61673;SDS011;47573;43.832;5.974;2023-05-07T05:18:26;78.88;;;56.38;;
61673;SDS011;47573;43.832;5.974;2023-05-07T05:25:08;36.37;;;24.33;;
61673;SDS011;47573;43.832;5.974;2023-05-07T05:31:49;100.13;;;38.90;;
61673;SDS011;47573;43.832;5.974;2023-05-07T05:38:29;21.83;;;13.30;;
61673;SDS011;47573;43.832;5.974;2023-05-07T05:45:11;49.78;;;21.75;;
61673;SDS011;47573;43.832;5.974;2023-05-07T05:51:52;44.80;;;17.90;;
61673;SDS011;47573;43.832;5.974;2023-05-07T05:58:32;47.73;;;22.03;;
61673;SDS011;47573;43.832;5.974;2023-05-07T06:05:14;121.10;;;40.42;;
61673;SDS011;47573;43.832;5.974;2023-05-07T06:11:55;294.42;;;104.03;;
61673;SDS011;47573;43.832;5.974;2023-05-07T06:18:35;97.67;;;32.47;;
61673;SDS011;47573;43.832;5.974;2023-05-07T06:25:17;170.83;;;53.73;;
61673;SDS011;47573;43.832;5.974;2023-05-07T06:32:05;120.72;;;42.88;;
61673;SDS011;47573;43.832;5.974;2023-05-07T06:38:46;9.25;;;5.32;;
61673;SDS011;47573;43.832;5.974;2023-05-07T06:45:28;21.00;;;8.83;;
61673;SDS011;47573;43.832;5.974;2023-05-07T06:52:08;86.00;;;28.27;;
61673;SDS011;47573;43.832;5.974;2023-05-07T06:58:49;323.93;;;102.07;;
61673;SDS011;47573;43.832;5.974;2023-05-07T07:05:31;156.17;;;40.00;;
61673;SDS011;47573;43.832;5.974;2023-05-07T07:12:11;14.73;;;9.13;;
61673;SDS011;47573;43.832;5.974;2023-05-07T07:18:51;9.97;;;7.07;;
61673;SDS011;47573;43.832;5.974;2023-05-07T07:25:33;30.07;;;13.60;;
61673;SDS011;47573;43.832;5.974;2023-05-07T07:32:14;6.80;;;4.88;;
61673;SDS011;47573;43.832;5.974;2023-05-07T07:38:54;20.38;;;8.18;;
61673;SDS011;47573;43.832;5.974;2023-05-07T07:45:36;33.53;;;13.77;;
61673;SDS011;47573;43.832;5.974;2023-05-07T07:52:18;8.15;;;5.30;;
61673;SDS011;47573;43.832;5.974;2023-05-07T07:58:58;9.52;;;6.80;;
61673;SDS011;47573;43.832;5.974;2023-05-07T08:05:40;10.57;;;7.80;;
61673;SDS011;47573;43.832;5.974;2023-05-07T08:12:20;16.33;;;11.60;;
61673;SDS011;47573;43.832;5.974;2023-05-07T08:19:01;21.13;;;15.32;;
61673;SDS011;47573;43.832;5.974;2023-05-07T08:25:43;23.93;;;18.30;;
61673;SDS011;47573;43.832;5.974;2023-05-07T08:32:23;30.20;;;21.33;;
61673;SDS011;47573;43.832;5.974;2023-05-07T08:39:04;30.70;;;22.20;;
61673;SDS011;47573;43.832;5.974;2023-05-07T08:45:46;30.20;;;22.20;;
61673;SDS011;47573;43.832;5.974;2023-05-07T08:52:31;35.05;;;25.15;;
61673;SDS011;47573;43.832;5.974;2023-05-07T08:59:12;35.03;;;25.45;;
61673;SDS011;47573;43.832;5.974;2023-05-07T09:05:55;35.20;;;25.08;;
61673;SDS011;47573;43.832;5.974;2023-05-07T09:12:35;33.10;;;25.30;;
61673;SDS011;47573;43.832;5.974;2023-05-07T09:19:16;33.83;;;25.17;;
61673;SDS011;47573;43.832;5.974;2023-05-07T09:26:04;34.40;;;25.55;;
61673;SDS011;47573;43.832;5.974;2023-05-07T09:32:44;32.40;;;25.08;;
61673;SDS011;47573;43.832;5.974;2023-05-07T09:39:25;34.37;;;24.90;;
61673;SDS011;47573;43.832;5.974;2023-05-07T09:46:08;32.30;;;23.73;;
61673;SDS011;47573;43.832;5.974;2023-05-07T09:52:51;31.55;;;23.65;;
61673;SDS011;47573;43.832;5.974;2023-05-07T09:59:32;29.75;;;22.60;;
61673;SDS011;47573;43.832;5.974;2023-05-07T10:06:15;29.60;;;22.87;;
61673;SDS011;47573;43.832;5.974;2023-05-07T10:19:38;31.15;;;23.08;;
61673;SDS011;47573;43.832;5.974;2023-05-07T10:26:21;31.73;;;21.95;;
61673;SDS011;47573;43.832;5.974;2023-05-07T10:33:04;29.90;;;22.00;;
61673;SDS011;47573;43.832;5.974;2023-05-07T10:39:46;31.42;;;22.77;;
61673;SDS011;47573;43.832;5.974;2023-05-07T10:46:28;29.30;;;21.75;;
61673;SDS011;47573;43.832;5.974;2023-05-07T10:53:21;34.30;;;24.10;;
61673;SDS011;47573;43.832;5.974;2023-05-07T11:00:03;29.48;;;21.92;;
61673;SDS011;47573;43.832;5.974;2023-05-07T11:14:08;26.23;;;20.10;;
61673;SDS011;47573;43.832;5.974;2023-05-07T11:20:53;27.15;;;20.50;;
61673;SDS011;47573;43.832;5.974;2023-05-07T11:27:36;28.67;;;21.60;;
61673;SDS011;47573;43.832;5.974;2023-05-07T11:34:20;27.00;;;20.37;;
61673;SDS011;47573;43.832;5.974;2023-05-07T11:41:02;23.70;;;17.23;;
61673;SDS011;47573;43.832;5.974;2023-05-07T11:47:43;22.08;;;16.25;;
61673;SDS011;47573;43.832;5.974;2023-05-07T11:54:24;21.57;;;16.97;;
61673;SDS011;47573;43.832;5.974;2023-05-07T12:01:06;21.47;;;17.23;;
61673;SDS011;47573;43.832;5.974;2023-05-07T12:07:49;22.48;;;17.00;;
61673;SDS011;47573;43.832;5.974;2023-05-07T12:14:37;22.02;;;17.05;;
61673;SDS011;47573;43.832;5.974;2023-05-07T12:21:19;23.77;;;17.13;;
61673;SDS011;47573;43.832;5.974;2023-05-07T12:28:02;23.98;;;16.98;;
61673;SDS011;47573;43.832;5.974;2023-05-07T12:34:43;20.35;;;16.58;;
61673;SDS011;47573;43.832;5.974;2023-05-07T12:41:23;20.73;;;16.52;;
61673;SDS011;47573;43.832;5.974;2023-05-07T12:48:05;22.33;;;16.33;;
61673;SDS011;47573;43.832;5.974;2023-05-07T12:54:46;23.80;;;16.33;;
61673;SDS011;47573;43.832;5.974;2023-05-07T13:01:28;20.20;;;15.75;;
61673;SDS011;47573;43.832;5.974;2023-05-07T13:08:11;19.52;;;15.32;;
61673;SDS011;47573;43.832;5.974;2023-05-07T13:14:51;20.13;;;15.07;;
61673;SDS011;47573;43.832;5.974;2023-05-07T13:21:32;21.87;;;15.10;;
61673;SDS011;47573;43.832;5.974;2023-05-07T13:28:14;16.63;;;12.82;;
61673;SDS011;47573;43.832;5.974;2023-05-07T13:34:54;15.30;;;11.93;;
61673;SDS011;47573;43.832;5.974;2023-05-07T13:41:35;10.07;;;8.17;;
61673;SDS011;47573;43.832;5.974;2023-05-07T13:48:16;10.03;;;7.63;;
61673;SDS011;47573;43.832;5.974;2023-05-07T13:54:57;9.23;;;6.15;;
61673;SDS011;47573;43.832;5.974;2023-05-07T14:01:37;6.70;;;4.20;;
61673;SDS011;47573;43.832;5.974;2023-05-07T14:08:19;4.40;;;3.70;;
61673;SDS011;47573;43.832;5.974;2023-05-07T14:15:00;8.23;;;4.17;;
61673;SDS011;47573;43.832;5.974;2023-05-07T14:21:40;5.07;;;4.00;;
61673;SDS011;47573;43.832;5.974;2023-05-07T14:28:22;6.10;;;4.35;;
61673;SDS011;47573;43.832;5.974;2023-05-07T14:35:03;5.10;;;4.07;;
61673;SDS011;47573;43.832;5.974;2023-05-07T14:41:44;6.32;;;4.20;;
61673;SDS011;47573;43.832;5.974;2023-05-07T14:48:26;12.70;;;9.73;;
61673;SDS011;47573;43.832;5.974;2023-05-07T14:55:07;17.97;;;12.83;;
61673;SDS011;47573;43.832;5.974;2023-05-07T15:01:48;27.75;;;20.73;;
61673;SDS011;47573;43.832;5.974;2023-05-07T15:08:30;27.13;;;20.27;;
61673;SDS011;47573;43.832;5.974;2023-05-07T15:15:10;49.67;;;34.87;;
61673;SDS011;47573;43.832;5.974;2023-05-07T15:21:51;54.25;;;38.05;;
61673;SDS011;47573;43.832;5.974;2023-05-07T15:28:33;46.35;;;33.35;;
61673;SDS011;47573;43.832;5.974;2023-05-07T15:35:13;33.27;;;22.73;;
61673;SDS011;47573;43.832;5.974;2023-05-07T15:41:54;30.43;;;22.33;;
61673;SDS011;47573;43.832;5.974;2023-05-07T15:48:35;49.97;;;34.13;;
61673;SDS011;47573;43.832;5.974;2023-05-07T15:55:16;44.10;;;31.03;;
61673;SDS011;47573;43.832;5.974;2023-05-07T16:01:56;41.83;;;29.07;;
61673;SDS011;47573;43.832;5.974;2023-05-07T16:08:38;47.20;;;31.23;;
61673;SDS011;47573;43.832;5.974;2023-05-07T16:15:19;51.93;;;34.63;;
61673;SDS011;47573;43.832;5.974;2023-05-07T16:21:59;46.22;;;30.88;;
61673;SDS011;47573;43.832;5.974;2023-05-07T16:28:41;50.17;;;33.80;;
61673;SDS011;47573;43.832;5.974;2023-05-07T16:35:21;65.60;;;42.17;;
61673;SDS011;47573;43.832;5.974;2023-05-07T16:42:02;73.03;;;48.13;;
61673;SDS011;47573;43.832;5.974;2023-05-07T16:48:44;74.72;;;44.50;;
61673;SDS011;47573;43.832;5.974;2023-05-07T16:55:25;79.10;;;49.10;;
61673;SDS011;47573;43.832;5.974;2023-05-07T17:02:05;63.10;;;37.03;;
61673;SDS011;47573;43.832;5.974;2023-05-07T17:08:47;63.83;;;36.60;;
61673;SDS011;47573;43.832;5.974;2023-05-07T17:15:27;67.13;;;37.50;;
61673;SDS011;47573;43.832;5.974;2023-05-07T17:22:08;76.47;;;44.77;;
61673;SDS011;47573;43.832;5.974;2023-05-07T17:28:50;82.03;;;47.43;;
61673;SDS011;47573;43.832;5.974;2023-05-07T17:35:30;84.57;;;45.30;;
61673;SDS011;47573;43.832;5.974;2023-05-07T17:42:11;101.20;;;52.20;;
61673;SDS011;47573;43.832;5.974;2023-05-07T17:48:52;108.90;;;53.97;;
61673;SDS011;47573;43.832;5.974;2023-05-07T17:55:33;103.50;;;53.60;;
61673;SDS011;47573;43.832;5.974;2023-05-07T18:02:13;106.17;;;53.50;;
61673;SDS011;47573;43.832;5.974;2023-05-07T18:08:55;65.90;;;36.10;;
61673;SDS011;47573;43.832;5.974;2023-05-07T18:15:35;73.27;;;37.67;;
61673;SDS011;47573;43.832;5.974;2023-05-07T18:22:16;56.47;;;31.67;;
61673;SDS011;47573;43.832;5.974;2023-05-07T18:28:58;57.10;;;30.87;;
61673;SDS011;47573;43.832;5.974;2023-05-07T18:35:38;59.90;;;31.27;;
61673;SDS011;47573;43.832;5.974;2023-05-07T18:42:19;40.00;;;23.13;;
61673;SDS011;47573;43.832;5.974;2023-05-07T18:49:01;33.15;;;19.13;;
61673;SDS011;47573;43.832;5.974;2023-05-07T18:55:41;48.40;;;27.88;;
61673;SDS011;47573;43.832;5.974;2023-05-07T19:02:22;54.93;;;28.37;;
61673;SDS011;47573;43.832;5.974;2023-05-07T19:09:04;71.22;;;31.75;;
61673;SDS011;47573;43.832;5.974;2023-05-07T19:15:44;42.63;;;23.70;;
61673;SDS011;47573;43.832;5.974;2023-05-07T19:22:25;53.70;;;32.90;;
61673;SDS011;47573;43.832;5.974;2023-05-07T19:29:06;43.97;;;26.50;;
61673;SDS011;47573;43.832;5.974;2023-05-07T19:35:47;47.92;;;26.52;;
61673;SDS011;47573;43.832;5.974;2023-05-07T19:42:27;50.23;;;30.60;;
61673;SDS011;47573;43.832;5.974;2023-05-07T19:49:09;51.88;;;34.20;;
61673;SDS011;47573;43.832;5.974;2023-05-07T19:55:52;87.77;;;51.57;;
61673;SDS011;47573;43.832;5.974;2023-05-07T20:02:40;95.03;;;55.92;;
61673;SDS011;47573;43.832;5.974;2023-05-07T20:09:22;92.23;;;55.40;;
61673;SDS011;47573;43.832;5.974;2023-05-07T20:16:03;92.57;;;56.90;;
61673;SDS011;47573;43.832;5.974;2023-05-07T20:22:44;96.07;;;58.15;;
61673;SDS011;47573;43.832;5.974;2023-05-07T20:29:25;93.57;;;57.23;;
61673;SDS011;47573;43.832;5.974;2023-05-07T20:36:06;97.90;;;58.50;;
61673;SDS011;47573;43.832;5.974;2023-05-07T20:42:46;137.35;;;82.13;;
61673;SDS011;47573;43.832;5.974;2023-05-07T20:49:28;156.73;;;97.82;;
61673;SDS011;47573;43.832;5.974;2023-05-07T20:56:09;172.73;;;113.80;;
61673;SDS011;47573;43.832;5.974;2023-05-07T21:02:49;187.57;;;123.00;;
61673;SDS011;47573;43.832;5.974;2023-05-07T21:09:31;195.67;;;129.10;;
61673;SDS011;47573;43.832;5.974;2023-05-07T21:16:12;232.17;;;154.10;;
61673;SDS011;47573;43.832;5.974;2023-05-07T21:22:52;239.15;;;164.90;;
61673;SDS011;47573;43.832;5.974;2023-05-07T21:29:34;268.43;;;190.40;;
61673;SDS011;47573;43.832;5.974;2023-05-07T21:36:15;258.20;;;184.63;;
61673;SDS011;47573;43.832;5.974;2023-05-07T21:42:55;278.07;;;199.53;;
61673;SDS011;47573;43.832;5.974;2023-05-07T21:49:38;283.98;;;206.18;;
61673;SDS011;47573;43.832;5.974;2023-05-07T21:56:18;321.10;;;233.63;;
61673;SDS011;47573;43.832;5.974;2023-05-07T22:02:59;327.53;;;244.73;;
61673;SDS011;47573;43.832;5.974;2023-05-07T22:09:41;346.73;;;259.58;;
61673;SDS011;47573;43.832;5.974;2023-05-07T22:16:21;338.00;;;256.40;;
61673;SDS011;47573;43.832;5.974;2023-05-07T22:23:01;340.67;;;250.53;;
61673;SDS011;47573;43.832;5.974;2023-05-07T22:29:43;331.48;;;243.45;;
61673;SDS011;47573;43.832;5.974;2023-05-07T22:36:24;317.23;;;229.20;;
61673;SDS011;47573;43.832;5.974;2023-05-07T22:43:04;318.20;;;233.37;;
61673;SDS011;47573;43.832;5.974;2023-05-07T22:49:46;332.03;;;244.23;;
61673;SDS011;47573;43.832;5.974;2023-05-07T22:56:27;329.73;;;245.37;;
61673;SDS011;47573;43.832;5.974;2023-05-07T23:03:07;319.67;;;233.68;;
61673;SDS011;47573;43.832;5.974;2023-05-07T23:09:49;336.77;;;249.70;;
61673;SDS011;47573;43.832;5.974;2023-05-07T23:16:30;345.98;;;253.88;;
61673;SDS011;47573;43.832;5.974;2023-05-07T23:23:10;355.52;;;265.33;;
61673;SDS011;47573;43.832;5.974;2023-05-07T23:29:52;329.20;;;243.83;;
61673;SDS011;47573;43.832;5.974;2023-05-07T23:36:33;367.93;;;273.73;;
61673;SDS011;47573;43.832;5.974;2023-05-07T23:43:13;384.83;;;291.45;;
61673;SDS011;47573;43.832;5.974;2023-05-07T23:49:55;374.00;;;282.10;;
61673;SDS011;47573;43.832;5.974;2023-05-07T23:56:36;376.37;;;281.83;;
